Union Gap, Washington
Current Conditions -  °F | °C
As of 10:53 AM on Saturday 25 Oct 2014 (Local Time) from KYKM Reporting Station
Broken Clouds Broken Clouds  
Wind Chill: 55°   Ceiling: 3600
Heat Index: 55°   Visibility: 10mi
Dew Point: 47°   Wind: 7mph
Humidity: 74%   Direction: 20°NNE
Pressure: 29.6"   Gusts: NA
Location:  46.562°N, 120.899°W
Report Text: KYKM 251753Z 02006KT 10SM BKN036 BKN095 13/08 A2960 RMK AO2 PRESFR SLP024 60000 T01280083 10128 20094 58016
Loading
Personal Weather Stations






























Interactive Weather Map
Tropical Storm Tracking
New forecast layout! Learn more

10-Day Weather Forecast

Advertisements
Track Severe Weather on mobile